首页
METAR-TAF:

METAR-TAF

机场 :

Klamath Falls Airport (Kingsley Field)

Klamath Falls, 俄勒冈州, 美国

纬度: 42-08-49N, 经度: 121-43-27W, 海拔: 1247米

当前天气观测

该预报发布于45分钟前的15:53 UTC
风速3节,风向南转南东
温度 4°C
湿度 93%
气压 1020 hPa
能見度: 16.1公里
少量云层高于1200英尺
多云层高于3000英尺
阴天层高于7000英尺

METAR: KLMT 121553Z 16003KT 10SM FEW012 BKN030 OVC070 04/03 A3012 RMK AO2 RAE18 SLP198 P0001 T00440033

时间: 08:38 (16:38 UTC)

预报

该预报发布于5小时和2分钟前的11:36 UTC
预报有效从12日的 12点(UTC)到 13日的 12点(UTC)
风速5节,风向西
能見度: 10公里
多云层高于1500英尺
多云层高于2500英尺
附近有阵雨
从 12日的 1900点(UTC)
风速12节,风向西转西南
能見度: 10公里
散云层高于1500英尺
阴天层高于3000英尺
小雨
从 12日的 2100点(UTC)
风速15节,风向西,有时为22节阵风
能見度: 10公里
散云层高于2500英尺
多云层高于5000英尺
小阵雨
从 13日的 0100点(UTC)
风速10节,风向西
能見度: 9.7公里
多云层高于1500英尺
阴天层高于2500英尺
小阵雨, 轻雾

TAF: KLMT 121136Z 1212/1312 27005KT P6SM VCSH BKN015 BKN025 FM121900 25012KT P6SM -RA SCT015 OVC030 FM122100 26015G22KT P6SM -SHRA SCT025 BKN050 FM130100 26010KT 6SM -SHRA BR BKN015 OVC025

超过4000个机场的气象观测和天气预报(METAR&TAF报告)。

可查询的气象台以黄色和红色小点在地图上表示。

将鼠标移到小点上方,可查看气象台名称。

然后点击查看天气观测和预报。

如需切换地图:点击带黑十字的绿色按钮放大地图;点击带横线的绿色按钮缩小地图;或者点击绿色箭头查看邻近地区的地图。


METAR-TAF: